Time;durP1;ratioP1;P1;durP2;ratioP2;P2;SDS_P1;SDS_P2;PMS_P1;PMS_P2;Temp;Humidity;BMP_temperature;BMP_pressure;BME280_temperature;BME280_humidity;BME280_pressure;Samples;Min_cycle;Max_cycle;Signal;HPM_P1;HPM_P2
2022/12/16 00:01:16;;;;;;;12.27;6.33;;;-6.60;99.90;;;;;;5074234;28;20188;-92
2022/12/16 00:03:47;;;;;;;13.47;5.67;;;-6.70;99.90;;;;;;5074249;28;20243;-94
2022/12/16 00:06:14;;;;;;;10.17;5.57;;;-6.80;99.90;;;;;;5074619;28;20616;-93
2022/12/16 00:08:39;;;;;;;11.07;5.60;;;-6.80;99.90;;;;;;5074440;28;20175;-92
2022/12/16 00:11:07;;;;;;;13.63;6.80;;;-6.90;99.90;;;;;;5074325;28;20235;-93
2022/12/16 00:13:37;;;;;;;13.40;6.83;;;-6.80;99.90;;;;;;5074430;28;20180;-94
2022/12/16 00:16:08;;;;;;;15.67;7.47;;;-6.70;99.90;;;;;;5074362;28;20187;-93
2022/12/16 00:18:34;;;;;;;14.40;6.60;;;-6.60;99.90;;;;;;5074190;28;20178;-93
2022/12/16 00:21:00;;;;;;;12.13;7.07;;;-6.60;99.90;;;;;;5074434;28;20640;-92
2022/12/16 00:23:32;;;;;;;12.13;7.03;;;-6.60;99.90;;;;;;5074038;28;20185;-92
2022/12/16 00:25:57;;;;;;;18.63;7.37;;;-6.60;99.90;;;;;;5074119;28;20185;-93
2022/12/16 00:28:24;;;;;;;13.37;6.80;;;-6.60;99.90;;;;;;5074289;28;20173;-92
2022/12/16 00:30:51;;;;;;;13.73;7.47;;;-6.60;99.90;;;;;;5073979;28;20188;-92
2022/12/16 00:33:20;;;;;;;12.77;7.23;;;-6.60;99.90;;;;;;5073970;28;20188;-92
2022/12/16 00:35:46;;;;;;;12.13;7.10;;;-6.60;99.90;;;;;;5073915;28;20182;-92
2022/12/16 00:38:12;;;;;;;14.17;7.53;;;-6.60;99.90;;;;;;5073732;28;20219;-93
2022/12/16 00:40:38;;;;;;;11.80;6.57;;;-6.60;99.90;;;;;;5073780;28;20181;-92
2022/12/16 00:43:04;;;;;;;14.40;7.40;;;-6.70;99.90;;;;;;5073647;28;20200;-93
2022/12/16 00:45:30;;;;;;;14.10;7.90;;;-6.80;99.90;;;;;;5074039;28;20223;-92
2022/12/16 00:47:56;;;;;;;13.87;6.93;;;-6.80;99.90;;;;;;5073643;28;20515;-92
2022/12/16 00:50:22;;;;;;;15.27;7.30;;;-6.70;99.90;;;;;;5073657;28;20183;-92
2022/12/16 00:52:48;;;;;;;13.90;7.17;;;-6.70;99.90;;;;;;5073781;28;20178;-95
2022/12/16 00:55:15;;;;;;;17.37;7.30;;;-6.90;99.90;;;;;;5073733;28;20205;-93
2022/12/16 00:57:41;;;;;;;13.37;7.57;;;-6.90;99.90;;;;;;5033286;28;1180531;-92
2022/12/16 01:00:12;;;;;;;14.27;7.67;;;-6.90;99.90;;;;;;5073985;28;20267;-93
2022/12/16 01:02:46;;;;;;;15.93;7.50;;;-6.90;99.90;;;;;;5074518;28;20185;-94
2022/12/16 01:05:14;;;;;;;20.03;7.67;;;-7.00;99.90;;;;;;5074224;28;20215;-93
2022/12/16 01:07:40;;;;;;;13.77;7.83;;;-6.90;99.90;;;;;;5073861;28;20691;-91
2022/12/16 01:10:08;;;;;;;13.40;7.37;;;-6.90;99.90;;;;;;5074193;28;20189;-93
2022/12/16 01:12:34;;;;;;;20.03;8.23;;;-6.90;99.90;;;;;;5074198;28;20181;-92
2022/12/16 01:15:00;;;;;;;13.53;7.00;;;-6.90;99.90;;;;;;5073982;28;20189;-92
2022/12/16 01:17:27;;;;;;;13.73;8.13;;;-6.90;99.90;;;;;;5074645;28;20174;-92
2022/12/16 01:19:53;;;;;;;15.33;7.60;;;-6.90;99.90;;;;;;5074297;28;20223;-93
2022/12/16 01:22:20;;;;;;;14.00;7.33;;;-6.90;99.90;;;;;;5075645;28;20254;-93
2022/12/16 01:24:50;;;;;;;14.73;7.97;;;-7.00;99.90;;;;;;5073753;28;20716;-92
2022/12/16 01:27:16;;;;;;;14.87;7.23;;;-7.10;99.90;;;;;;5074139;28;20177;-92
2022/12/16 01:29:42;;;;;;;12.63;7.23;;;-7.10;99.90;;;;;;5073805;28;20634;-93
2022/12/16 01:32:17;;;;;;;12.97;7.20;;;-7.10;99.90;;;;;;5073922;28;20180;-93
2022/12/16 01:34:51;;;;;;;18.33;8.30;;;-7.00;99.90;;;;;;5074206;28;20180;-93
2022/12/16 01:37:17;;;;;;;16.70;8.27;;;-7.00;99.90;;;;;;5074118;28;20181;-92
2022/12/16 01:39:43;;;;;;;13.10;7.60;;;-7.10;99.90;;;;;;5059789;28;20322;-92
2022/12/16 01:42:12;;;;;;;15.57;7.10;;;-7.10;99.90;;;;;;5057085;28;20173;-93
2022/12/16 01:44:45;;;;;;;15.93;8.43;;;-7.10;99.90;;;;;;5056733;28;20215;-92
2022/12/16 01:47:29;;;;;;;11.60;6.47;;;-7.20;99.90;;;;;;5057501;28;20254;-91
2022/12/16 01:50:05;;;;;;;11.33;6.57;;;-7.20;99.90;;;;;;5057120;28;20259;-92
2022/12/16 01:52:40;;;;;;;14.10;7.43;;;-7.30;99.90;;;;;;5057241;28;20495;-92
2022/12/16 01:55:18;;;;;;;10.43;6.13;;;-7.40;99.90;;;;;;5074887;28;20244;-93
2022/12/16 01:57:49;;;;;;;13.80;6.43;;;-7.50;99.90;;;;;;5037118;28;20274;-92
2022/12/16 02:00:15;;;;;;;13.70;6.43;;;-7.60;99.90;;;;;;5036934;28;20205;-91
2022/12/16 02:02:46;;;;;;;9.67;5.90;;;-7.60;99.90;;;;;;5037218;28;20183;-92
2022/12/16 02:05:21;;;;;;;13.97;6.43;;;-7.60;99.90;;;;;;5037083;28;20212;-92
2022/12/16 02:08:01;;;;;;;13.93;6.30;;;-7.60;99.90;;;;;;5035746;28;20196;-94
2022/12/16 02:10:34;;;;;;;16.50;6.43;;;-7.60;99.90;;;;;;5017160;28;20188;-92
2022/12/16 02:13:22;;;;;;;12.47;6.07;;;-7.70;99.90;;;;;;5017740;28;20170;-92
2022/12/16 02:16:32;;;;;;;11.87;6.57;;;-7.60;99.90;;;;;;5038520;28;20222;-94
2022/12/16 02:19:25;;;;;;;11.90;5.77;;;-7.60;99.90;;;;;;5020730;28;20232;-94
2022/12/16 02:22:18;;;;;;;11.00;6.20;;;-7.60;99.90;;;;;;5020531;28;20202;-91
2022/12/16 02:25:12;;;;;;;9.53;5.73;;;-7.80;99.90;;;;;;5020582;28;20203;-91
2022/12/16 02:27:55;;;;;;;9.90;5.80;;;-7.70;99.90;;;;;;5020641;28;20172;-92
2022/12/16 02:30:43;;;;;;;10.27;6.07;;;-7.70;99.90;;;;;;5020741;28;20513;-92
2022/12/16 02:33:36;;;;;;;11.60;5.90;;;-7.70;99.90;;;;;;5020602;28;20317;-92
2022/12/16 02:36:23;;;;;;;12.73;6.40;;;-7.70;99.90;;;;;;5020729;28;20167;-92
2022/12/16 02:38:56;;;;;;;11.77;6.43;;;-7.90;99.90;;;;;;5029905;28;20178;-91
2022/12/16 02:41:44;;;;;;;12.77;6.30;;;-7.90;99.90;;;;;;5040275;28;20289;-91
2022/12/16 02:44:13;;;;;;;11.00;6.57;;;-7.90;99.90;;;;;;5057726;28;20198;-92
2022/12/16 02:46:51;;;;;;;15.30;6.70;;;-7.80;99.90;;;;;;5040097;28;20170;-93
2022/12/16 02:49:17;;;;;;;16.13;7.30;;;-7.70;99.90;;;;;;5040257;28;20200;-93
2022/12/16 02:51:44;;;;;;;13.63;6.63;;;-7.70;99.90;;;;;;5040346;28;20182;-93
2022/12/16 02:54:17;;;;;;;12.70;6.20;;;-7.60;99.90;;;;;;5040041;28;20181;-92
2022/12/16 02:57:12;;;;;;;13.10;5.83;;;-7.60;99.90;;;;;;5069606;28;20235;-92
2022/12/16 02:59:48;;;;;;;12.37;5.90;;;-7.70;99.90;;;;;;5076384;28;20230;-92
2022/12/16 03:02:26;;;;;;;14.30;6.53;;;-7.70;99.90;;;;;;5076524;28;20173;-93
2022/12/16 03:05:08;;;;;;;12.63;6.37;;;-7.70;99.90;;;;;;5076202;28;20667;-92
2022/12/16 03:07:37;;;;;;;14.47;6.73;;;-7.70;99.90;;;;;;5076584;28;20180;-92
2022/12/16 03:10:10;;;;;;;10.47;5.33;;;-7.60;99.90;;;;;;5056567;28;20181;-93
2022/12/16 03:12:39;;;;;;;17.10;7.90;;;-7.70;99.90;;;;;;5055593;28;20601;-93
2022/12/16 03:15:07;;;;;;;12.93;7.03;;;-7.70;99.90;;;;;;5462909;22;20245;-86
2022/12/16 03:17:35;;;;;;;12.43;6.93;;;-7.70;99.90;;;;;;5022704;28;20187;-88
2022/12/16 03:20:10;;;;;;;13.97;7.67;;;-7.70;99.90;;;;;;4995590;28;20187;-85
2022/12/16 03:22:40;;;;;;;13.00;7.17;;;-7.80;99.90;;;;;;4996226;28;20322;-85
2022/12/16 03:25:07;;;;;;;13.87;6.80;;;-7.90;99.90;;;;;;4994713;28;20221;-85
2022/12/16 03:27:56;;;;;;;14.10;7.30;;;-8.00;99.90;;;;;;4996110;28;20183;-87
2022/12/16 03:30:29;;;;;;;11.20;6.00;;;-8.20;99.90;;;;;;4996112;28;20267;-86
2022/12/16 03:33:09;;;;;;;10.13;5.93;;;-8.30;99.90;;;;;;4996059;28;20186;-86
2022/12/16 03:35:38;;;;;;;13.73;6.53;;;-8.30;99.90;;;;;;4996046;28;20187;-87
2022/12/16 03:38:09;;;;;;;11.63;5.90;;;-8.40;99.90;;;;;;4995667;28;20629;-86
2022/12/16 03:40:39;;;;;;;10.57;6.10;;;-8.30;99.90;;;;;;5011519;28;20194;-85
2022/12/16 03:43:06;;;;;;;14.43;6.67;;;-8.20;99.90;;;;;;5032048;28;20190;-87
2022/12/16 03:45:38;;;;;;;15.80;7.33;;;-8.30;99.90;;;;;;5031509;28;20206;-87
2022/12/16 03:48:07;;;;;;;13.23;6.67;;;-8.30;99.90;;;;;;5032026;28;20266;-87
2022/12/16 03:50:34;;;;;;;12.00;6.63;;;-8.40;99.90;;;;;;5031892;28;20190;-88
2022/12/16 03:53:01;;;;;;;15.87;6.60;;;-8.40;99.90;;;;;;5016671;28;20167;-86
2022/12/16 03:55:27;;;;;;;12.87;6.07;;;-8.40;99.90;;;;;;5031610;28;20613;-84
2022/12/16 03:57:53;;;;;;;12.07;6.97;;;-8.50;99.90;;;;;;5031652;28;20178;-86
2022/12/16 04:00:20;;;;;;;13.07;7.00;;;-8.50;99.90;;;;;;5031772;28;20170;-87
2022/12/16 04:02:46;;;;;;;15.23;6.97;;;-8.50;99.90;;;;;;5016357;28;20182;-85
2022/12/16 04:05:12;;;;;;;12.23;7.27;;;-8.60;99.90;;;;;;5031654;28;20214;-86
2022/12/16 04:07:37;;;;;;;14.53;6.80;;;-8.50;99.90;;;;;;5031675;28;20230;-86
2022/12/16 04:10:04;;;;;;;13.30;7.37;;;-8.30;99.90;;;;;;5029767;28;20277;-87
2022/12/16 04:27:23;;;;;;;9.00;5.30;;;-8.40;99.90;;;;;;4996029;28;20178;-86
2022/12/16 04:29:20;;;;;;;10.23;6.00;;;-8.50;99.90;;;;;;4995797;28;20243;-85
2022/12/16 04:31:46;;;;;;;13.17;6.73;;;-8.60;99.90;;;;;;4978881;28;20256;-87
2022/12/16 04:34:28;;;;;;;14.20;7.07;;;-8.60;99.90;;;;;;4978557;28;20191;-88
